createdAt,value
2019-04-16T00:00:01.358Z,8.00
2019-04-16T00:03:03.966Z,7.94
2019-04-16T00:06:21.254Z,8.06
2019-04-16T00:09:31.474Z,8.06
2019-04-16T00:12:50.474Z,8.25
2019-04-16T00:15:51.802Z,8.25
2019-04-16T00:18:57.825Z,8.25
2019-04-16T00:22:12.471Z,8.06
2019-04-16T00:25:13.947Z,7.87
2019-04-16T00:28:15.397Z,7.94
2019-04-16T00:31:16.739Z,7.75
2019-04-16T00:34:18.428Z,7.62
2019-04-16T00:37:21.284Z,7.50
2019-04-16T00:40:26.388Z,7.44
2019-04-16T00:43:27.055Z,7.31
2019-04-16T00:46:28.479Z,7.19
2019-04-16T00:49:29.824Z,7.12
2019-04-16T00:52:31.159Z,7.12
2019-04-16T00:55:32.486Z,7.06
2019-04-16T00:58:33.840Z,7.00
2019-04-16T01:01:35.282Z,7.06
2019-04-16T01:04:36.604Z,6.94
2019-04-16T01:07:37.917Z,6.94
2019-04-16T01:10:39.325Z,7.00
2019-04-16T01:13:40.717Z,6.94
2019-04-16T01:16:42.134Z,6.87
2019-04-16T01:19:43.471Z,6.87
2019-04-16T01:22:46.871Z,6.94
2019-04-16T01:25:48.924Z,6.94
2019-04-16T01:28:55.482Z,6.81
2019-04-16T01:32:11.250Z,6.81
2019-04-16T01:35:29.346Z,6.75
2019-04-16T01:38:51.167Z,6.62
2019-04-16T01:41:53.317Z,6.69
2019-04-16T01:44:59.411Z,6.56
2019-04-16T01:47:58.014Z,6.37
2019-04-16T01:50:59.638Z,6.50
2019-04-16T01:54:00.993Z,6.50
2019-04-16T01:57:02.682Z,6.56
2019-04-16T02:00:07.807Z,6.37
2019-04-16T02:03:09.184Z,6.31
2019-04-16T02:06:10.534Z,6.19
2019-04-16T02:09:22.421Z,6.12
2019-04-16T02:12:14.948Z,6.19
2019-04-16T02:15:16.260Z,6.12
2019-04-16T02:18:17.590Z,5.94
2019-04-16T02:21:18.948Z,6.00
2019-04-16T02:24:20.261Z,6.19
2019-04-16T02:27:23.513Z,6.19
2019-04-16T02:30:24.724Z,6.44
2019-04-16T02:33:26.047Z,6.75
2019-04-16T02:36:27.417Z,6.87
2019-04-16T02:39:46.925Z,6.94
2019-04-16T02:42:32.172Z,6.62
2019-04-16T02:45:34.650Z,6.56
2019-04-16T02:48:36.003Z,6.50
2019-04-16T02:51:54.853Z,6.31
2019-04-16T02:55:16.377Z,6.19
2019-04-16T02:58:22.238Z,6.06
2019-04-16T03:01:45.593Z,6.12
2019-04-16T03:04:51.814Z,6.12
2019-04-16T03:07:53.180Z,6.06
2019-04-16T03:10:54.591Z,5.94
2019-04-16T03:13:59.187Z,5.87
2019-04-16T03:17:24.125Z,5.94
2019-04-16T03:20:25.503Z,5.94
2019-04-16T03:23:26.897Z,5.94
2019-04-16T03:26:28.264Z,5.87
2019-04-16T03:29:30.462Z,5.81
2019-04-16T03:32:36.238Z,5.75
2019-04-16T03:35:37.319Z,5.81
2019-04-16T03:38:41.993Z,5.81
2019-04-16T03:41:41.828Z,5.87
2019-04-16T03:44:43.201Z,5.75
2019-04-16T03:47:44.564Z,5.56
2019-04-16T03:50:45.907Z,5.56
2019-04-16T03:53:49.569Z,5.56
2019-04-16T03:56:51.391Z,5.56
2019-04-16T03:59:52.736Z,5.50
2019-04-16T04:02:55.119Z,5.50
2019-04-16T04:05:57.427Z,5.44
2019-04-16T04:08:58.769Z,5.31
2019-04-16T04:12:00.123Z,5.31
2019-04-16T04:15:01.491Z,5.31
2019-04-16T04:18:03.971Z,5.37
2019-04-16T04:21:05.353Z,5.37
2019-04-16T04:24:06.747Z,5.37
2019-04-16T04:27:12.825Z,5.44
2019-04-16T04:30:11.965Z,5.44
2019-04-16T04:33:32.663Z,5.56
2019-04-16T04:36:34.039Z,5.62
2019-04-16T04:39:35.383Z,5.62
2019-04-16T04:42:36.780Z,5.69
2019-04-16T04:45:40.935Z,5.87
2019-04-16T04:48:41.188Z,6.06
2019-04-16T04:51:43.648Z,6.25
2019-04-16T04:54:45.051Z,6.37
2019-04-16T04:57:46.379Z,6.44
2019-04-16T05:00:47.720Z,6.44
2019-04-16T05:04:20.423Z,6.56
2019-04-16T05:07:20.563Z,6.56
2019-04-16T05:10:21.892Z,6.37
2019-04-16T05:13:24.863Z,6.37
2019-04-16T05:16:26.313Z,6.25
2019-04-16T05:19:27.666Z,6.25
2019-04-16T05:22:29.014Z,6.44
2019-04-16T05:25:33.561Z,6.62
2019-04-16T05:28:33.425Z,6.75
2019-04-16T05:31:34.768Z,6.75
2019-04-16T05:34:37.458Z,6.87
2019-04-16T05:37:39.200Z,7.06
2019-04-16T05:40:40.559Z,7.06
2019-04-16T05:43:41.945Z,7.44
2019-04-16T05:46:46.645Z,7.50
2019-04-16T05:49:46.410Z,7.69
2019-04-16T05:52:47.787Z,7.62
2019-04-16T05:56:11.133Z,7.94
2019-04-16T05:59:12.469Z,7.94
2019-04-16T06:02:19.950Z,8.13
2019-04-16T06:05:21.763Z,8.19
2019-04-16T06:08:24.526Z,8.56
2019-04-16T06:11:29.016Z,8.88
2019-04-16T06:14:49.517Z,9.06
2019-04-16T06:18:10.075Z,9.75
2019-04-16T06:21:25.841Z,10.50
2019-04-16T06:24:47.974Z,11.12
2019-04-16T06:28:08.268Z,11.50
2019-04-16T06:31:27.200Z,12.56
2019-04-16T06:34:43.826Z,13.38
2019-04-16T06:37:51.852Z,14.50
2019-04-16T06:41:21.434Z,14.31
2019-04-16T06:44:24.123Z,14.19
2019-04-16T06:47:42.865Z,15.44
2019-04-16T06:50:52.331Z,16.81
2019-04-16T06:54:04.638Z,17.94
2019-04-16T06:57:30.748Z,17.87
2019-04-16T07:00:42.978Z,17.06
2019-04-16T07:03:59.470Z,16.50
2019-04-16T07:07:16.490Z,16.31
2019-04-16T07:10:19.901Z,17.31
2019-04-16T07:13:21.461Z,18.19
2019-04-16T07:16:27.899Z,18.69
2019-04-16T07:19:25.952Z,21.31
2019-04-16T07:22:27.342Z,21.19
2019-04-16T07:25:29.868Z,18.44
2019-04-16T07:28:39.964Z,17.62
2019-04-16T07:31:53.283Z,19.81
2019-04-16T07:35:19.247Z,22.00
2019-04-16T07:38:27.774Z,22.62
2019-04-16T07:42:07.844Z,23.69
2019-04-16T07:45:11.366Z,21.75
2019-04-16T07:48:25.384Z,22.31
2019-04-16T07:51:38.604Z,18.37
2019-04-16T07:54:50.192Z,22.87
2019-04-16T07:57:51.614Z,27.31
2019-04-16T08:00:53.227Z,24.25
2019-04-16T08:03:56.856Z,24.75
2019-04-16T08:06:58.992Z,28.38
2019-04-16T08:10:02.111Z,25.12
2019-04-16T08:13:23.052Z,27.62
2019-04-16T08:16:24.495Z,28.87
2019-04-16T08:19:36.769Z,28.56
2019-04-16T08:22:29.219Z,31.19
2019-04-16T08:25:34.031Z,32.25
2019-04-16T08:28:34.477Z,30.69
2019-04-16T08:31:43.479Z,27.69
2019-04-16T08:34:42.515Z,28.56
2019-04-16T08:37:49.106Z,29.06
2019-04-16T08:40:47.034Z,27.56
2019-04-16T08:43:48.437Z,27.69
2019-04-16T08:46:49.859Z,25.88
2019-04-16T08:49:54.126Z,23.31
2019-04-16T08:52:54.424Z,20.56
2019-04-16T08:55:56.155Z,25.88
2019-04-16T08:59:00.911Z,26.31
2019-04-16T09:02:00.793Z,29.25
2019-04-16T09:05:05.895Z,29.63
2019-04-16T09:08:22.090Z,30.75
2019-04-16T09:11:23.921Z,31.00
2019-04-16T09:14:27.343Z,33.06
2019-04-16T09:17:31.990Z,27.13
2019-04-16T09:20:37.826Z,25.75
2019-04-16T09:23:39.954Z,25.12
2019-04-16T09:26:52.742Z,26.19
2019-04-16T09:30:17.814Z,26.44
2019-04-16T09:33:22.717Z,28.06
2019-04-16T09:36:45.846Z,29.75
2019-04-16T09:39:59.621Z,24.44
2019-04-16T09:43:15.791Z,26.37
2019-04-16T09:46:11.027Z,26.12
2019-04-16T09:49:08.586Z,26.00
2019-04-16T09:52:10.098Z,24.12
2019-04-16T09:55:11.635Z,27.44
2019-04-16T09:58:22.490Z,25.56
2019-04-16T10:01:27.853Z,26.06
2019-04-16T10:04:29.392Z,27.87
2019-04-16T10:07:30.823Z,34.00
2019-04-16T10:10:32.269Z,32.63
2019-04-16T10:13:36.063Z,30.88
2019-04-16T10:16:37.014Z,28.56
2019-04-16T10:19:43.017Z,28.00
2019-04-16T10:22:41.750Z,32.19
2019-04-16T10:25:44.146Z,25.88
2019-04-16T10:28:45.607Z,22.94
2019-04-16T10:31:47.174Z,25.06
2019-04-16T10:34:48.595Z,30.37
2019-04-16T10:37:50.072Z,28.81
2019-04-16T10:40:57.099Z,28.81
2019-04-16T10:44:17.520Z,26.37
2019-04-16T10:47:36.793Z,28.19
2019-04-16T10:50:47.386Z,30.44
2019-04-16T10:54:02.862Z,32.44
2019-04-16T10:57:22.366Z,29.50
2019-04-16T11:00:42.858Z,27.50
2019-04-16T11:04:19.738Z,28.94
2019-04-16T11:07:24.355Z,27.25
2019-04-16T11:10:25.776Z,27.87
2019-04-16T11:13:33.212Z,26.50
2019-04-16T11:16:36.110Z,27.81
2019-04-16T11:19:37.655Z,27.94
2019-04-16T11:22:39.117Z,28.69
2019-04-16T11:25:40.592Z,34.75
2019-04-16T11:28:42.001Z,36.69
2019-04-16T11:31:43.705Z,30.12
2019-04-16T11:34:45.094Z,30.19
2019-04-16T11:38:05.692Z,26.69
2019-04-16T11:41:08.126Z,26.87
2019-04-16T11:44:16.191Z,30.50
2019-04-16T11:47:12.594Z,26.37
2019-04-16T11:50:13.957Z,24.19
2019-04-16T11:53:16.511Z,21.75
2019-04-16T11:56:22.393Z,20.88
2019-04-16T11:59:22.030Z,21.87
2019-04-16T12:02:30.422Z,22.37
2019-04-16T12:05:36.304Z,23.31
2019-04-16T12:09:05.667Z,23.75
2019-04-16T12:12:12.087Z,23.25
2019-04-16T12:15:32.442Z,20.62
2019-04-16T12:18:51.757Z,20.50
2019-04-16T12:22:24.225Z,21.06
2019-04-16T12:25:36.081Z,21.31
2019-04-16T12:29:01.906Z,19.50
2019-04-16T12:32:09.171Z,19.31
2019-04-16T12:35:31.124Z,20.62
2019-04-16T12:38:39.912Z,23.31
2019-04-16T12:42:00.338Z,22.37
2019-04-16T12:45:19.069Z,22.56
2019-04-16T12:48:42.422Z,22.87
2019-04-16T12:52:02.923Z,22.50
2019-04-16T12:55:31.697Z,24.37
2019-04-16T12:59:03.209Z,20.75
2019-04-16T13:02:18.539Z,19.75
2019-04-16T13:05:28.989Z,21.06
2019-04-16T13:08:39.758Z,22.56
2019-04-16T13:11:47.209Z,21.44
2019-04-16T13:15:06.590Z,21.25
2019-04-16T13:18:14.855Z,21.56
2019-04-16T13:21:18.985Z,20.62
2019-04-16T13:24:29.374Z,20.81
2019-04-16T13:27:33.344Z,19.69
2019-04-16T13:30:34.721Z,20.56
2019-04-16T13:33:37.209Z,20.44
2019-04-16T13:36:38.781Z,19.62
2019-04-16T13:39:49.256Z,19.06
2019-04-16T13:42:50.650Z,18.37
2019-04-16T13:45:52.029Z,18.12
2019-04-16T13:49:05.074Z,17.69
2019-04-16T13:52:06.486Z,17.62
2019-04-16T13:55:25.640Z,17.69
2019-04-16T13:58:34.833Z,17.44
2019-04-16T14:01:45.194Z,17.50
2019-04-16T14:04:43.608Z,17.81
2019-04-16T14:07:44.990Z,18.19
2019-04-16T14:10:46.358Z,17.87
2019-04-16T14:13:50.169Z,17.94
2019-04-16T14:16:50.844Z,17.94
2019-04-16T14:19:52.237Z,18.00
2019-04-16T14:22:54.276Z,18.06
2019-04-16T14:25:55.863Z,18.00
2019-04-16T14:28:57.257Z,18.44
2019-04-16T14:31:58.793Z,18.37
2019-04-16T14:35:02.896Z,18.62
2019-04-16T14:38:04.272Z,18.69
2019-04-16T14:41:06.031Z,18.56
2019-04-16T14:44:11.178Z,18.50
2019-04-16T14:47:12.674Z,18.56
2019-04-16T14:50:14.057Z,18.69
2019-04-16T14:53:28.561Z,18.75
2019-04-16T14:56:37.609Z,18.56
2019-04-16T15:00:17.469Z,18.37
2019-04-16T15:03:36.355Z,18.50
2019-04-16T15:07:12.142Z,18.69
2019-04-16T15:10:22.120Z,18.62
2019-04-16T15:13:57.834Z,18.25
2019-04-16T15:17:06.011Z,18.19
2019-04-16T15:20:25.516Z,18.25
2019-04-16T15:24:02.088Z,17.37
2019-04-16T15:27:31.813Z,17.19
2019-04-16T15:30:53.931Z,17.37
2019-04-16T15:34:11.105Z,17.25
2019-04-16T15:37:19.668Z,16.81
2019-04-16T15:40:33.444Z,16.44
2019-04-16T15:43:50.441Z,16.31
2019-04-16T15:46:57.781Z,16.25
2019-04-16T15:50:07.144Z,16.37
2019-04-16T15:53:27.517Z,16.31
2019-04-16T15:56:40.692Z,16.50
2019-04-16T16:00:03.427Z,16.44
2019-04-16T16:03:22.732Z,16.50
2019-04-16T16:06:25.531Z,16.37
2019-04-16T16:09:51.933Z,16.25
2019-04-16T16:12:53.962Z,16.25
2019-04-16T16:15:55.856Z,16.00
2019-04-16T16:18:57.289Z,16.12
2019-04-16T16:21:58.714Z,15.94
2019-04-16T16:25:00.089Z,15.69
2019-04-16T16:28:01.452Z,15.63
2019-04-16T16:31:02.817Z,15.50
2019-04-16T16:34:08.029Z,15.38
2019-04-16T16:37:07.691Z,15.25
2019-04-16T16:40:11.947Z,15.13
2019-04-16T16:43:14.277Z,15.13
2019-04-16T16:46:31.503Z,14.94
2019-04-16T16:49:32.971Z,14.87
2019-04-16T16:53:02.304Z,14.75
2019-04-16T16:56:13.643Z,14.44
2019-04-16T16:59:31.781Z,14.44
2019-04-16T17:02:38.028Z,14.31
2019-04-16T17:05:40.936Z,14.25
2019-04-16T17:08:42.350Z,14.25
2019-04-16T17:11:44.083Z,14.06
2019-04-16T17:14:45.513Z,14.13
2019-04-16T17:17:46.971Z,13.88
2019-04-16T17:20:50.186Z,13.88
2019-04-16T17:23:51.574Z,14.00
2019-04-16T17:26:52.970Z,13.94
2019-04-16T17:29:54.492Z,13.88
2019-04-16T17:32:55.921Z,13.62
2019-04-16T17:35:57.408Z,13.44
2019-04-16T17:38:58.792Z,13.50
2019-04-16T17:42:05.322Z,13.44
2019-04-16T17:45:44.931Z,13.44
2019-04-16T17:48:57.197Z,13.31
2019-04-16T17:52:18.631Z,13.19
2019-04-16T17:55:28.591Z,13.25
2019-04-16T17:58:41.913Z,13.06
2019-04-16T18:01:54.662Z,12.88
2019-04-16T18:05:15.007Z,12.75
2019-04-16T18:08:35.376Z,12.75
2019-04-16T18:11:52.582Z,12.69
2019-04-16T18:15:09.172Z,12.56
2019-04-16T18:18:16.821Z,12.69
2019-04-16T18:21:39.828Z,12.50
2019-04-16T18:25:12.295Z,12.37
2019-04-16T18:28:18.853Z,12.31
2019-04-16T18:31:39.214Z,12.31
2019-04-16T18:34:53.803Z,12.25
2019-04-16T18:38:19.060Z,12.31
2019-04-16T18:41:32.562Z,12.19
2019-04-16T18:44:54.936Z,12.19
2019-04-16T18:48:12.977Z,12.06
2019-04-16T18:51:09.461Z,12.00
2019-04-16T18:54:10.904Z,11.81
2019-04-16T18:57:12.347Z,11.88
2019-04-16T19:00:28.650Z,11.81
2019-04-16T19:03:31.404Z,11.56
2019-04-16T19:06:32.902Z,11.63
2019-04-16T19:09:34.336Z,11.56
2019-04-16T19:12:35.832Z,11.31
2019-04-16T19:15:37.275Z,11.44
2019-04-16T19:18:38.821Z,11.44
2019-04-16T19:21:42.313Z,11.25
2019-04-16T19:24:43.528Z,11.25
2019-04-16T19:27:48.682Z,11.31
2019-04-16T19:30:48.077Z,11.19
2019-04-16T19:33:49.506Z,11.12
2019-04-16T19:36:50.943Z,11.06
2019-04-16T19:39:52.374Z,11.06
2019-04-16T19:42:54.040Z,10.94
2019-04-16T19:45:55.660Z,10.94
2019-04-16T19:49:00.418Z,10.94
2019-04-16T19:52:00.547Z,10.88
2019-04-16T19:55:02.141Z,10.88
2019-04-16T19:58:03.641Z,10.94
2019-04-16T20:01:05.158Z,11.00
2019-04-16T20:04:10.640Z,11.06
2019-04-16T20:07:10.076Z,10.94
2019-04-16T20:10:11.692Z,10.81
2019-04-16T20:13:13.164Z,11.00
2019-04-16T20:16:15.688Z,11.06
2019-04-16T20:19:17.069Z,11.19
2019-04-16T20:22:18.503Z,11.12
2019-04-16T20:25:19.924Z,10.94
2019-04-16T20:28:21.339Z,11.00
2019-04-16T20:31:22.809Z,10.94
2019-04-16T20:34:24.254Z,11.06
2019-04-16T20:37:25.680Z,10.94
2019-04-16T20:40:27.081Z,10.81
2019-04-16T20:43:28.552Z,10.94
2019-04-16T20:46:30.107Z,11.00
2019-04-16T20:49:31.524Z,11.00
2019-04-16T20:52:34.159Z,10.88
2019-04-16T20:55:36.093Z,10.75
2019-04-16T20:58:37.478Z,10.69
2019-04-16T21:01:38.908Z,10.75
2019-04-16T21:04:40.340Z,10.75
2019-04-16T21:07:43.946Z,10.63
2019-04-16T21:10:44.859Z,10.56
2019-04-16T21:13:46.933Z,10.50
2019-04-16T21:16:49.372Z,10.50
2019-04-16T21:19:50.820Z,10.50
2019-04-16T21:22:52.536Z,10.50
2019-04-16T21:25:53.939Z,10.38
2019-04-16T21:29:02.008Z,10.38
2019-04-16T21:32:05.252Z,10.38
2019-04-16T21:35:13.913Z,10.38
2019-04-16T21:38:37.002Z,10.50
2019-04-16T21:41:38.387Z,10.44
2019-04-16T21:44:41.355Z,10.44
2019-04-16T21:47:42.928Z,10.38
2019-04-16T21:50:44.631Z,10.44
2019-04-16T21:53:47.508Z,10.44
2019-04-16T21:56:48.925Z,10.44
2019-04-16T21:59:56.930Z,10.50
2019-04-16T22:02:53.708Z,10.56
2019-04-16T22:05:55.135Z,10.63
2019-04-16T22:08:59.085Z,10.50
2019-04-16T22:11:59.781Z,10.50
2019-04-16T22:15:01.174Z,10.63
2019-04-16T22:18:07.547Z,10.56
2019-04-16T22:21:09.792Z,10.50
2019-04-16T22:24:09.128Z,10.50
2019-04-16T22:27:10.518Z,10.44
2019-04-16T22:30:11.927Z,10.50
2019-04-16T22:33:13.320Z,10.50
2019-04-16T22:36:15.688Z,10.50
2019-04-16T22:39:38.953Z,10.50
2019-04-16T22:43:07.944Z,10.44
2019-04-16T22:46:12.339Z,10.44
2019-04-16T22:49:13.842Z,10.44
2019-04-16T22:52:15.214Z,10.44
2019-04-16T22:55:16.687Z,10.44
2019-04-16T22:58:25.081Z,10.44
2019-04-16T23:01:27.931Z,10.44
2019-04-16T23:04:29.345Z,10.38
2019-04-16T23:07:30.761Z,10.44
2019-04-16T23:10:32.146Z,10.38
2019-04-16T23:13:33.584Z,10.38
2019-04-16T23:16:34.965Z,10.31
2019-04-16T23:19:36.344Z,10.31
2019-04-16T23:22:37.765Z,10.31
2019-04-16T23:25:39.227Z,10.31
2019-04-16T23:28:42.479Z,10.31
2019-04-16T23:31:43.705Z,10.31
2019-04-16T23:34:45.127Z,10.25
2019-04-16T23:37:46.544Z,10.25
2019-04-16T23:40:47.964Z,10.25
2019-04-16T23:44:25.831Z,10.25
2019-04-16T23:47:44.533Z,10.25
2019-04-16T23:51:06.386Z,10.31
2019-04-16T23:54:15.076Z,10.31
2019-04-16T23:57:24.740Z,10.31
